Horse Creek, Wyoming
Current Conditions -  °F | °C
As of 4:56 AM on Friday 28 Nov 2014 (Local Time) from KFEW Reporting Station
Clear Clear  
Wind Chill: 41°   Ceiling: Unl
Heat Index: 47°   Visibility: 10mi
Dew Point: 13°   Wind: 18mph
Humidity: 25%   Direction: 260°W
Pressure: 29.93"   Gusts: NA
Location:  41.41°N, 105.18°W
Report Text: KFEW 281156Z AUTO 26016KT 10SM CLR 09/M10 A2993 RMK AO2 SLP093 70002 T00861104 10116 20082 57010
Loading
Personal Weather Stations






























Interactive Weather Map New forecast layout! Learn more

10-Day Weather Forecast

Advertisements
Track Severe Weather on mobile